Island Fox — FOX — position and weather

sailwx.info

Track history (hours):
 
Tides and Currents Weather Stations Pressure Air Temp Water Temp Dewpoint Dewpoint Depression Visibility Wind Speed Wind Dir Waves Ship Positions

Island Fox

Last reported at 2017-Oct-27 20:52 UTC. Time now 2017-Nov-18 01:05 UTC.
Position N 34°09' W 119°12'.
Warning: this ship's position is 21 days out of date.

Length 28 m; draft 3 m.

Type: Military. MMSI: 368926007.

Date/timePositionNaut miles runAvg speedWind from/ knotsBaromVisibWave heightAir tempDewpointWater temp
2017-Oct-27 20:52N 34°09' W 119°12'2 5.4
2017-Oct-27 20:30N 34°07' W 119°14'611.6
2017-Oct-27 19:57N 34°02' W 119°18'512.0
2017-Oct-27 19:30N 33°58' W 119°22'611.9
2017-Oct-27 19:00N 33°53' W 119°26'3 6.2
2017-Oct-27 18:30N 33°51' W 119°29'3 6.3
2017-Oct-27 17:59N 33°55' W 119°28'1 1.6
2017-Oct-27 17:27N 33°54' W 119°29'0 0.6
2017-Oct-27 17:00N 33°54' W 119°29'2 4.4
2017-Oct-27 16:31N 33°52' W 119°29'611.7
2017-Oct-27 16:00N 33°46' W 119°29'2 4.2
2017-Oct-27 15:30N 33°44' W 119°31'3 5.2
2017-Oct-27 15:01N 33°42' W 119°30'1 1.7
2017-Oct-27 14:30N 33°42' W 119°31'1 2.0
2017-Oct-27 14:00N 33°41' W 119°30'1 2.5
2017-Oct-27 13:30N 33°42' W 119°31'2 5.0
2017-Oct-27 13:00N 33°44' W 119°30'3 6.3
2017-Oct-27 12:30N 33°47' W 119°28'3 6.5
2017-Oct-27 12:00N 33°50' W 119°26'3 6.8
2017-Oct-27 11:30N 33°53' W 119°24'3 6.7
2017-Oct-27 11:00N 33°56' W 119°22'3 6.3
2017-Oct-27 10:30N 33°59' W 119°20'3 6.5
2017-Oct-27 10:00N 34°01' W 119°18'3 6.6
2017-Oct-27 09:29N 34°04' W 119°16'3 6.6
2017-Oct-27 08:58N 34°07' W 119°14'2 4.6
2017-Oct-27 08:30N 34°09' W 119°12'0 0.0
2017-Oct-26 02:34N 34°09' W 119°12'0 0.0
2017-Oct-26 02:30N 34°09' W 119°12'610.6
2017-Oct-26 01:56N 34°04' W 119°16'613.1
2017-Oct-26 01:30N 33°59' W 119°20'713.5
2017-Oct-26 01:00N 33°54' W 119°24'713.8
2017-Oct-26 00:30N 33°48' W 119°29'713.4
2017-Oct-26 00:00N 33°42' W 119°33'5 9.9
2017-Oct-25 23:29N 33°37' W 119°31'3 5.2
2017-Oct-25 23:00N 33°35' W 119°29'611.5
2017-Oct-25 22:30N 33°35' W 119°22'611.4
2017-Oct-25 22:01N 33°36' W 119°15'5 9.7
2017-Oct-25 21:30N 33°37' W 119°10'0 0.3
2017-Oct-25 21:00N 33°37' W 119°10'0 0.6
2017-Oct-25 20:30N 33°37' W 119°10'0 0.5
2017-Oct-25 20:00N 33°36' W 119°10'0 0.4
2017-Oct-25 19:30N 33°36' W 119°10'0 0.3
2017-Oct-25 19:00N 33°36' W 119°10'0 0.3
2017-Oct-25 18:30N 33°36' W 119°10'0 0.3
2017-Oct-25 18:00N 33°36' W 119°10'0 0.3
2017-Oct-25 17:30N 33°36' W 119°10'0 0.3
2017-Oct-25 17:00N 33°36' W 119°10'0 0.5
2017-Oct-25 16:29N 33°36' W 119°09'1 1.4
2017-Oct-25 15:59N 33°35' W 119°10'1 3.0
2017-Oct-25 15:30N 33°36' W 119°12'2 3.4
2017-Oct-25 15:00N 33°36' W 119°14'1 2.6
2017-Oct-25 14:31N 33°35' W 119°12'2 3.9
2017-Oct-25 13:59N 33°37' W 119°13'4 7.9
2017-Oct-25 13:30N 33°41' W 119°14'4 8.5
2017-Oct-25 13:00N 33°45' W 119°13'4 8.1
2017-Oct-25 12:30N 33°49' W 119°13'4 8.2
2017-Oct-25 12:00N 33°53' W 119°12'5 8.8
2017-Oct-25 11:29N 33°58' W 119°12'4 8.7
2017-Oct-25 10:59N 34°02' W 119°13'4 8.1
2017-Oct-25 10:29N 34°06' W 119°13'3 6.3
2017-Oct-25 10:00N 34°09' W 119°13'0 0.1
2017-Oct-25 09:22N 34°09' W 119°12'  
2017-Oct-22 12:55N 34°09' W 119°12'2 4.9
2017-Oct-22 12:30N 34°07' W 119°14'5 9.6
2017-Oct-22 11:56N 34°03' W 119°17'4 9.7
2017-Oct-22 11:30N 33°60' W 119°20'5 9.9
2017-Oct-22 11:00N 33°56' W 119°24'612.6
2017-Oct-22 10:30N 33°51' W 119°28'712.5
2017-Oct-22 09:59N 33°45' W 119°33'612.3
2017-Oct-22 09:30N 33°40' W 119°37'4 8.5
2017-Oct-22 09:01N 33°38' W 119°41'2 4.5
2017-Oct-22 08:30N 33°38' W 119°43'2 4.4
2017-Oct-22 08:00N 33°37' W 119°46'2 4.5
2017-Oct-22 07:31N 33°37' W 119°49'2 4.8
2017-Oct-22 07:01N 33°38' W 119°52'3 5.1
2017-Oct-22 06:30N 33°38' W 119°55'2 4.2
2017-Oct-22 06:01N 33°38' W 119°57'3 5.5
2017-Oct-22 05:30N 33°38' W 119°54'3 5.3
2017-Oct-22 05:00N 33°39' W 119°51'3 5.2
2017-Oct-22 04:30N 33°39' W 119°48'3 5.3
2017-Oct-22 04:00N 33°40' W 119°45'2 4.9
2017-Oct-22 03:30N 33°41' W 119°42'2 4.3
2017-Oct-22 03:01N 33°41' W 119°39'2 4.2
2017-Oct-22 02:31N 33°42' W 119°37'2 4.1
2017-Oct-22 02:00N 33°42' W 119°34'2 4.8
2017-Oct-22 01:30N 33°43' W 119°32'3 6.0
2017-Oct-22 01:01N 33°44' W 119°28'3 5.1
2017-Oct-22 00:30N 33°45' W 119°26'2 4.7
2017-Oct-22 00:01N 33°46' W 119°28'4 8.0
2017-Oct-21 23:30N 33°50' W 119°30'1 3.0
2017-Oct-21 23:01N 33°52' W 119°29'1 1.7
2017-Oct-21 22:31N 33°51' W 119°29'3 5.2
2017-Oct-21 21:59N 33°50' W 119°32'2 5.2
2017-Oct-21 21:30N 33°51' W 119°29'2 4.0
2017-Oct-21 21:00N 33°53' W 119°28'5 9.4
2017-Oct-21 20:25N 33°58' W 119°30'3 6.6
2017-Oct-21 19:59N 34°01' W 119°28'4 9.1
2017-Oct-21 19:31N 34°03' W 119°24'5 9.0
2017-Oct-21 18:59N 34°06' W 119°19'5 8.9
2017-Oct-21 18:28N 34°08' W 119°14'2 3.5
2017-Oct-21 17:56N 34°09' W 119°12'0 0.0
2017-Oct-21 17:30N 34°09' W 119°12'0 0.0
2017-Oct-21 16:57N 34°09' W 119°12'0 0.0
2017-Oct-21 16:29N 34°09' W 119°12'0 0.0
2017-Oct-21 15:58N 34°09' W 119°12'0 0.0
2017-Oct-21 15:29N 34°09' W 119°12'0 0.0
2017-Oct-21 14:58N 34°09' W 119°12'0 0.0
2017-Oct-21 14:30N 34°09' W 119°12'0 0.0
2017-Oct-21 13:30N 34°09' W 119°12'0 0.0
2017-Oct-21 12:58N 34°09' W 119°12'0 0.0
2017-Oct-21 12:29N 34°09' W 119°12'0 0.0
2017-Oct-21 12:00N 34°09' W 119°12'0 0.0
2017-Oct-21 11:29N 34°09' W 119°12'0 0.0
2017-Oct-21 10:58N 34°09' W 119°12'0 0.0
2017-Oct-21 10:30N 34°09' W 119°12'0 0.0
2017-Oct-21 09:59N 34°09' W 119°12'0 0.0
2017-Oct-21 09:30N 34°09' W 119°12'0 0.0
2017-Oct-21 08:50N 34°09' W 119°12'0 0.0
2017-Oct-21 08:28N 34°09' W 119°12'0 0.0
2017-Oct-21 07:57N 34°09' W 119°12'0 0.0
2017-Oct-21 07:27N 34°09' W 119°12'0 0.0
2017-Oct-21 06:53N 34°09' W 119°12'0 0.0
2017-Oct-21 06:27N 34°09' W 119°12'0 0.0
2017-Oct-21 05:58N 34°09' W 119°12'0 0.0
2017-Oct-21 05:30N 34°09' W 119°12'0 0.0
2017-Oct-21 04:59N 34°09' W 119°12'0 0.0
2017-Oct-21 04:30N 34°09' W 119°12'0 0.0
2017-Oct-21 04:00N 34°09' W 119°12'0 0.0
2017-Oct-21 03:26N 34°09' W 119°12'0 0.0
2017-Oct-21 02:58N 34°09' W 119°12'0 0.0
2017-Oct-21 02:27N 34°09' W 119°12'0 0.0
2017-Oct-21 01:59N 34°09' W 119°12'0 0.0
2017-Oct-21 01:27N 34°09' W 119°12'0 0.0
2017-Oct-21 00:56N 34°09' W 119°12'0 0.0
2017-Oct-21 00:27N 34°09' W 119°12'0 0.0
2017-Oct-20 23:57N 34°09' W 119°12'0 0.0
2017-Oct-20 23:28N 34°09' W 119°12'0 0.0
2017-Oct-20 23:00N 34°09' W 119°12'0 0.0
2017-Oct-20 22:30N 34°09' W 119°12'0 0.0
2017-Oct-20 21:58N 34°09' W 119°12'0 0.0
2017-Oct-20 21:27N 34°09' W 119°12'0 0.0
2017-Oct-20 20:54N 34°09' W 119°12'0 0.0
2017-Oct-20 20:24N 34°09' W 119°12'0 0.0
2017-Oct-20 19:57N 34°09' W 119°12'0 0.0
2017-Oct-20 15:42N 34°09' W 119°12'0 0.0
2017-Oct-20 15:30N 34°09' W 119°12'0 0.0
2017-Oct-20 15:01N 34°09' W 119°12'0 0.0
2017-Oct-20 14:00N 34°09' W 119°12'0 0.0
2017-Oct-20 13:31N 34°09' W 119°12'0 0.0
2017-Oct-20 12:58N 34°09' W 119°12'0 0.0
2017-Oct-20 12:29N 34°09' W 119°12'0 0.0
2017-Oct-20 12:00N 34°09' W 119°12'0 0.0
2017-Oct-20 11:30N 34°09' W 119°12'0 0.0
2017-Oct-20 10:57N 34°09' W 119°12'0 0.0
2017-Oct-20 10:28N 34°09' W 119°12'0 0.0
2017-Oct-20 09:59N 34°09' W 119°12'0 0.0
2017-Oct-20 09:27N 34°09' W 119°12'0 0.0
2017-Oct-20 09:00N 34°09' W 119°12'0 0.0
2017-Oct-20 08:28N 34°09' W 119°12'0 0.0
2017-Oct-20 08:00N 34°09' W 119°12'0 0.0
2017-Oct-20 07:30N 34°09' W 119°12'0 0.0
2017-Oct-20 07:00N 34°09' W 119°12'0 0.0
2017-Oct-20 06:30N 34°09' W 119°12'0 0.0
2017-Oct-20 06:01N 34°09' W 119°12'0 0.0
2017-Oct-20 05:30N 34°09' W 119°12'0 0.0
2017-Oct-20 05:00N 34°09' W 119°12'0 0.0
2017-Oct-20 04:31N 34°09' W 119°12'0 0.0
2017-Oct-20 04:01N 34°09' W 119°12'0 0.0
2017-Oct-20 03:28N 34°09' W 119°12'0 0.0
2017-Oct-20 03:00N 34°09' W 119°12'0 0.0
2017-Oct-20 02:29N 34°09' W 119°12'0 0.0
2017-Oct-20 02:00N 34°09' W 119°12'0 0.0
2017-Oct-20 01:30N 34°09' W 119°12'0 0.0
2017-Oct-20 01:00N 34°09' W 119°12'0 0.0
2017-Oct-20 00:26N 34°09' W 119°12'0 0.0
2017-Oct-19 23:59N 34°09' W 119°12'0 0.0
2017-Oct-19 23:31N 34°09' W 119°12'0 0.0
2017-Oct-19 22:59N 34°09' W 119°12'0 0.0
2017-Oct-19 22:30N 34°09' W 119°12'0 0.0
2017-Oct-19 22:00N 34°09' W 119°12'0 0.0
2017-Oct-19 21:30N 34°09' W 119°12'0 0.0
2017-Oct-19 21:00N 34°09' W 119°12'  
Track history (hours):
 
Tides and Currents Weather Stations Pressure Air Temp Water Temp Dewpoint Dewpoint Depression Visibility Wind Speed Wind Dir Waves Ship Positions

Island Fox

Last reported at 2017-Oct-27 20:52 UTC. Time now 2017-Nov-18 01:05 UTC.
Position N 34°09' W 119°12'.
Warning: this ship's position is 21 days out of date.

Length 28 m; draft 3 m.

Type: Military. MMSI: 368926007.

Date/timePositionNaut miles runAvg speedWind from/ knotsBaromVisibWave heightAir tempDewpointWater temp
2017-Oct-27 20:52N 34°09' W 119°12'2 5.4
2017-Oct-27 20:30N 34°07' W 119°14'611.6
2017-Oct-27 19:57N 34°02' W 119°18'512.0
2017-Oct-27 19:30N 33°58' W 119°22'611.9
2017-Oct-27 19:00N 33°53' W 119°26'3 6.2
2017-Oct-27 18:30N 33°51' W 119°29'3 6.3
2017-Oct-27 17:59N 33°55' W 119°28'1 1.6
2017-Oct-27 17:27N 33°54' W 119°29'0 0.6
2017-Oct-27 17:00N 33°54' W 119°29'2 4.4
2017-Oct-27 16:31N 33°52' W 119°29'611.7
2017-Oct-27 16:00N 33°46' W 119°29'2 4.2
2017-Oct-27 15:30N 33°44' W 119°31'3 5.2
2017-Oct-27 15:01N 33°42' W 119°30'1 1.7
2017-Oct-27 14:30N 33°42' W 119°31'1 2.0
2017-Oct-27 14:00N 33°41' W 119°30'1 2.5
2017-Oct-27 13:30N 33°42' W 119°31'2 5.0
2017-Oct-27 13:00N 33°44' W 119°30'3 6.3
2017-Oct-27 12:30N 33°47' W 119°28'3 6.5
2017-Oct-27 12:00N 33°50' W 119°26'3 6.8
2017-Oct-27 11:30N 33°53' W 119°24'3 6.7
2017-Oct-27 11:00N 33°56' W 119°22'3 6.3
2017-Oct-27 10:30N 33°59' W 119°20'3 6.5
2017-Oct-27 10:00N 34°01' W 119°18'3 6.6
2017-Oct-27 09:29N 34°04' W 119°16'3 6.6
2017-Oct-27 08:58N 34°07' W 119°14'2 4.6
2017-Oct-27 08:30N 34°09' W 119°12'0 0.0
2017-Oct-26 02:34N 34°09' W 119°12'0 0.0
2017-Oct-26 02:30N 34°09' W 119°12'610.6
2017-Oct-26 01:56N 34°04' W 119°16'613.1
2017-Oct-26 01:30N 33°59' W 119°20'713.5
2017-Oct-26 01:00N 33°54' W 119°24'713.8
2017-Oct-26 00:30N 33°48' W 119°29'713.4
2017-Oct-26 00:00N 33°42' W 119°33'5 9.9
2017-Oct-25 23:29N 33°37' W 119°31'3 5.2
2017-Oct-25 23:00N 33°35' W 119°29'611.5
2017-Oct-25 22:30N 33°35' W 119°22'611.4
2017-Oct-25 22:01N 33°36' W 119°15'5 9.7
2017-Oct-25 21:30N 33°37' W 119°10'0 0.3
2017-Oct-25 21:00N 33°37' W 119°10'0 0.6
2017-Oct-25 20:30N 33°37' W 119°10'0 0.5
2017-Oct-25 20:00N 33°36' W 119°10'0 0.4
2017-Oct-25 19:30N 33°36' W 119°10'0 0.3
2017-Oct-25 19:00N 33°36' W 119°10'0 0.3
2017-Oct-25 18:30N 33°36' W 119°10'0 0.3
2017-Oct-25 18:00N 33°36' W 119°10'0 0.3
2017-Oct-25 17:30N 33°36' W 119°10'0 0.3
2017-Oct-25 17:00N 33°36' W 119°10'0 0.5
2017-Oct-25 16:29N 33°36' W 119°09'1 1.4
2017-Oct-25 15:59N 33°35' W 119°10'1 3.0
2017-Oct-25 15:30N 33°36' W 119°12'2 3.4
2017-Oct-25 15:00N 33°36' W 119°14'1 2.6
2017-Oct-25 14:31N 33°35' W 119°12'2 3.9
2017-Oct-25 13:59N 33°37' W 119°13'4 7.9
2017-Oct-25 13:30N 33°41' W 119°14'4 8.5
2017-Oct-25 13:00N 33°45' W 119°13'4 8.1
2017-Oct-25 12:30N 33°49' W 119°13'4 8.2
2017-Oct-25 12:00N 33°53' W 119°12'5 8.8
2017-Oct-25 11:29N 33°58' W 119°12'4 8.7
2017-Oct-25 10:59N 34°02' W 119°13'4 8.1
2017-Oct-25 10:29N 34°06' W 119°13'3 6.3
2017-Oct-25 10:00N 34°09' W 119°13'0 0.1
2017-Oct-25 09:22N 34°09' W 119°12'  
2017-Oct-22 12:55N 34°09' W 119°12'2 4.9
2017-Oct-22 12:30N 34°07' W 119°14'5 9.6
2017-Oct-22 11:56N 34°03' W 119°17'4 9.7
2017-Oct-22 11:30N 33°60' W 119°20'5 9.9
2017-Oct-22 11:00N 33°56' W 119°24'612.6
2017-Oct-22 10:30N 33°51' W 119°28'712.5
2017-Oct-22 09:59N 33°45' W 119°33'612.3
2017-Oct-22 09:30N 33°40' W 119°37'4 8.5
2017-Oct-22 09:01N 33°38' W 119°41'2 4.5
2017-Oct-22 08:30N 33°38' W 119°43'2 4.4
2017-Oct-22 08:00N 33°37' W 119°46'2 4.5
2017-Oct-22 07:31N 33°37' W 119°49'2 4.8
2017-Oct-22 07:01N 33°38' W 119°52'3 5.1
2017-Oct-22 06:30N 33°38' W 119°55'2 4.2
2017-Oct-22 06:01N 33°38' W 119°57'3 5.5
2017-Oct-22 05:30N 33°38' W 119°54'3 5.3
2017-Oct-22 05:00N 33°39' W 119°51'3 5.2
2017-Oct-22 04:30N 33°39' W 119°48'3 5.3
2017-Oct-22 04:00N 33°40' W 119°45'2 4.9
2017-Oct-22 03:30N 33°41' W 119°42'2 4.3
2017-Oct-22 03:01N 33°41' W 119°39'2 4.2
2017-Oct-22 02:31N 33°42' W 119°37'2 4.1
2017-Oct-22 02:00N 33°42' W 119°34'2 4.8
2017-Oct-22 01:30N 33°43' W 119°32'3 6.0
2017-Oct-22 01:01N 33°44' W 119°28'3 5.1
2017-Oct-22 00:30N 33°45' W 119°26'2 4.7
2017-Oct-22 00:01N 33°46' W 119°28'4 8.0
2017-Oct-21 23:30N 33°50' W 119°30'1 3.0
2017-Oct-21 23:01N 33°52' W 119°29'1 1.7
2017-Oct-21 22:31N 33°51' W 119°29'3 5.2
2017-Oct-21 21:59N 33°50' W 119°32'2 5.2
2017-Oct-21 21:30N 33°51' W 119°29'2 4.0
2017-Oct-21 21:00N 33°53' W 119°28'5 9.4
2017-Oct-21 20:25N 33°58' W 119°30'3 6.6
2017-Oct-21 19:59N 34°01' W 119°28'4 9.1
2017-Oct-21 19:31N 34°03' W 119°24'5 9.0
2017-Oct-21 18:59N 34°06' W 119°19'5 8.9
2017-Oct-21 18:28N 34°08' W 119°14'2 3.5
2017-Oct-21 17:56N 34°09' W 119°12'0 0.0
2017-Oct-21 17:30N 34°09' W 119°12'0 0.0
2017-Oct-21 16:57N 34°09' W 119°12'0 0.0
2017-Oct-21 16:29N 34°09' W 119°12'0 0.0
2017-Oct-21 15:58N 34°09' W 119°12'0 0.0
2017-Oct-21 15:29N 34°09' W 119°12'0 0.0
2017-Oct-21 14:58N 34°09' W 119°12'0 0.0
2017-Oct-21 14:30N 34°09' W 119°12'0 0.0
2017-Oct-21 13:30N 34°09' W 119°12'0 0.0
2017-Oct-21 12:58N 34°09' W 119°12'0 0.0
2017-Oct-21 12:29N 34°09' W 119°12'0 0.0
2017-Oct-21 12:00N 34°09' W 119°12'0 0.0
2017-Oct-21 11:29N 34°09' W 119°12'0 0.0
2017-Oct-21 10:58N 34°09' W 119°12'0 0.0
2017-Oct-21 10:30N 34°09' W 119°12'0 0.0
2017-Oct-21 09:59N 34°09' W 119°12'0 0.0
2017-Oct-21 09:30N 34°09' W 119°12'0 0.0
2017-Oct-21 08:50N 34°09' W 119°12'0 0.0
2017-Oct-21 08:28N 34°09' W 119°12'0 0.0
2017-Oct-21 07:57N 34°09' W 119°12'0 0.0
2017-Oct-21 07:27N 34°09' W 119°12'0 0.0
2017-Oct-21 06:53N 34°09' W 119°12'0 0.0
2017-Oct-21 06:27N 34°09' W 119°12'0 0.0
2017-Oct-21 05:58N 34°09' W 119°12'0 0.0
2017-Oct-21 05:30N 34°09' W 119°12'0 0.0
2017-Oct-21 04:59N 34°09' W 119°12'0 0.0
2017-Oct-21 04:30N 34°09' W 119°12'0 0.0
2017-Oct-21 04:00N 34°09' W 119°12'0 0.0
2017-Oct-21 03:26N 34°09' W 119°12'0 0.0
2017-Oct-21 02:58N 34°09' W 119°12'0 0.0
2017-Oct-21 02:27N 34°09' W 119°12'0 0.0
2017-Oct-21 01:59N 34°09' W 119°12'0 0.0
2017-Oct-21 01:27N 34°09' W 119°12'0 0.0
2017-Oct-21 00:56N 34°09' W 119°12'0 0.0
2017-Oct-21 00:27N 34°09' W 119°12'0 0.0
2017-Oct-20 23:57N 34°09' W 119°12'0 0.0
2017-Oct-20 23:28N 34°09' W 119°12'0 0.0
2017-Oct-20 23:00N 34°09' W 119°12'0 0.0
2017-Oct-20 22:30N 34°09' W 119°12'0 0.0
2017-Oct-20 21:58N 34°09' W 119°12'0 0.0
2017-Oct-20 21:27N 34°09' W 119°12'0 0.0
2017-Oct-20 20:54N 34°09' W 119°12'0 0.0
2017-Oct-20 20:24N 34°09' W 119°12'0 0.0
2017-Oct-20 19:57N 34°09' W 119°12'0 0.0
2017-Oct-20 15:42N 34°09' W 119°12'0 0.0
2017-Oct-20 15:30N 34°09' W 119°12'0 0.0
2017-Oct-20 15:01N 34°09' W 119°12'0 0.0
2017-Oct-20 14:00N 34°09' W 119°12'0 0.0
2017-Oct-20 13:31N 34°09' W 119°12'0 0.0
2017-Oct-20 12:58N 34°09' W 119°12'0 0.0
2017-Oct-20 12:29N 34°09' W 119°12'0 0.0
2017-Oct-20 12:00N 34°09' W 119°12'0 0.0
2017-Oct-20 11:30N 34°09' W 119°12'0 0.0
2017-Oct-20 10:57N 34°09' W 119°12'0 0.0
2017-Oct-20 10:28N 34°09' W 119°12'0 0.0
2017-Oct-20 09:59N 34°09' W 119°12'0 0.0
2017-Oct-20 09:27N 34°09' W 119°12'0 0.0
2017-Oct-20 09:00N 34°09' W 119°12'0 0.0
2017-Oct-20 08:28N 34°09' W 119°12'0 0.0
2017-Oct-20 08:00N 34°09' W 119°12'0 0.0
2017-Oct-20 07:30N 34°09' W 119°12'0 0.0
2017-Oct-20 07:00N 34°09' W 119°12'0 0.0
2017-Oct-20 06:30N 34°09' W 119°12'0 0.0
2017-Oct-20 06:01N 34°09' W 119°12'0 0.0
2017-Oct-20 05:30N 34°09' W 119°12'0 0.0
2017-Oct-20 05:00N 34°09' W 119°12'0 0.0
2017-Oct-20 04:31N 34°09' W 119°12'0 0.0
2017-Oct-20 04:01N 34°09' W 119°12'0 0.0
2017-Oct-20 03:28N 34°09' W 119°12'0 0.0
2017-Oct-20 03:00N 34°09' W 119°12'0 0.0
2017-Oct-20 02:29N 34°09' W 119°12'0 0.0
2017-Oct-20 02:00N 34°09' W 119°12'0 0.0
2017-Oct-20 01:30N 34°09' W 119°12'0 0.0
2017-Oct-20 01:00N 34°09' W 119°12'0 0.0
2017-Oct-20 00:26N 34°09' W 119°12'0 0.0
2017-Oct-19 23:59N 34°09' W 119°12'0 0.0
2017-Oct-19 23:31N 34°09' W 119°12'0 0.0
2017-Oct-19 22:59N 34°09' W 119°12'0 0.0
2017-Oct-19 22:30N 34°09' W 119°12'0 0.0
2017-Oct-19 22:00N 34°09' W 119°12'0 0.0
2017-Oct-19 21:30N 34°09' W 119°12'0 0.0
2017-Oct-19 21:00N 34°09' W 119°12'  

Dump ship's entire track history